Time;durP1;ratioP1;P1;durP2;ratioP2;P2;SDS_P1;SDS_P2;PMS_P1;PMS_P2;Temp;Humidity;BMP_temperature;BMP_pressure;BME280_temperature;BME280_humidity;BME280_pressure;Samples;Min_cycle;Max_cycle;Signal;HPM_P1;HPM_P2
2021/09/21 00:00:10;;;;;;;;;;;;;;;14.92;66.35;100874.31;5032631;28;20418;-61
2021/09/21 00:02:57;;;;;;;;;;;;;;;14.94;66.45;100876.97;5032695;28;19975;-61
2021/09/21 00:05:46;;;;;;;;;;;;;;;14.94;66.34;100879.56;5033351;28;20288;-62
2021/09/21 00:08:31;;;;;;;;;;;;;;;14.92;66.52;100884.75;5050623;28;19928;-62
2021/09/21 00:11:21;;;;;;;;;;;;;;;14.92;66.55;100884.75;5036948;28;19944;-62
2021/09/21 00:14:05;;;;;;;;;;;;;;;14.90;66.46;100891.69;5036464;28;19927;-61
2021/09/21 00:16:49;;;;;;;;;;;;;;;14.90;66.39;100883.84;5036465;28;19927;-62
2021/09/21 00:19:33;;;;;;;;;;;;;;;14.90;66.35;100888.22;5037096;28;20006;-61
2021/09/21 00:22:17;;;;;;;;;;;;;;;14.89;66.49;100889.94;5036419;28;20049;-62
2021/09/21 00:25:07;;;;;;;;;;;;;;;14.88;66.54;100888.19;5037258;28;19947;-61
2021/09/21 00:28:03;;;;;;;;;;;;;;;14.87;66.53;100896.84;5036487;28;19967;-62
2021/09/21 00:30:51;;;;;;;;;;;;;;;14.87;66.40;100902.06;5036000;28;19959;-62
2021/09/21 00:33:52;;;;;;;;;;;;;;;14.87;66.30;100902.06;5036452;28;20344;-61
2021/09/21 00:36:48;;;;;;;;;;;;;;;14.85;66.44;100896.00;5036308;28;20008;-61
2021/09/21 00:39:40;;;;;;;;;;;;;;;14.85;66.40;100897.72;5036067;28;19928;-61
2021/09/21 00:42:28;;;;;;;;;;;;;;;14.84;66.40;100895.97;5036982;28;20288;-61
2021/09/21 00:45:25;;;;;;;;;;;;;;;14.83;66.35;100889.88;5036261;28;20471;-61
2021/09/21 00:48:14;;;;;;;;;;;;;;;14.85;66.52;100889.88;5035682;28;19968;-61
2021/09/21 00:50:59;;;;;;;;;;;;;;;14.83;66.48;100894.19;5035810;28;20344;-61
2021/09/21 00:53:53;;;;;;;;;;;;;;;14.83;66.37;100899.41;5037035;28;19931;-61
2021/09/21 00:56:46;;;;;;;;;;;;;;;14.81;66.28;100899.41;5036052;28;19928;-61
2021/09/21 00:59:38;;;;;;;;;;;;;;;14.81;66.29;100899.41;5050028;28;19990;-61
2021/09/21 01:02:31;;;;;;;;;;;;;;;14.80;66.30;100905.50;5035545;28;19932;-62
2021/09/21 01:05:24;;;;;;;;;;;;;;;14.79;66.34;100903.72;5035383;28;19927;-63
2021/09/21 01:08:08;;;;;;;;;;;;;;;14.80;66.42;100909.81;5035294;28;20362;-61
2021/09/21 01:10:58;;;;;;;;;;;;;;;14.79;66.29;100906.34;5035291;28;19928;-61
2021/09/21 01:13:47;;;;;;;;;;;;;;;14.79;66.49;100895.03;5035684;28;20059;-61
2021/09/21 01:16:37;;;;;;;;;;;;;;;14.79;66.30;100906.34;5035185;28;19928;-61
2021/09/21 01:19:22;;;;;;;;;;;;;;;14.79;66.33;100895.91;5034482;28;20392;-62
2021/09/21 01:22:06;;;;;;;;;;;;;;;14.77;66.22;100906.34;5049646;28;19928;-62
2021/09/21 01:25:00;;;;;;;;;;;;;;;14.76;66.46;100909.81;5035949;28;19928;-62
2021/09/21 01:27:44;;;;;;;;;;;;;;;14.77;66.36;100910.66;5035579;28;19967;-61
2021/09/21 01:30:34;;;;;;;;;;;;;;;14.76;66.36;100909.81;5035315;28;20442;-62
2021/09/21 01:33:20;;;;;;;;;;;;;;;14.76;66.40;100901.09;5035559;28;19928;-61
2021/09/21 01:36:09;;;;;;;;;;;;;;;14.76;66.47;100911.53;5034629;28;19928;-62
2021/09/21 01:39:02;;;;;;;;;;;;;;;14.76;66.40;100914.13;5035160;28;19932;-61
2021/09/21 01:41:51;;;;;;;;;;;;;;;14.73;66.28;100922.81;5034507;28;19943;-61
2021/09/21 01:44:41;;;;;;;;;;;;;;;14.74;66.22;100923.66;5034758;28;19974;-63
2021/09/21 01:47:31;;;;;;;;;;;;;;;14.72;66.48;100917.53;5034569;28;20393;-61
2021/09/21 01:50:22;;;;;;;;;;;;;;;14.72;66.29;100910.59;5048901;28;19928;-63
2021/09/21 01:59:29;;;;;;;;;;;;;;;14.71;66.33;100915.81;5053070;28;20002;-62
2021/09/21 02:02:21;;;;;;;;;;;;;;;14.71;66.42;100908.84;5052808;28;19931;-61
2021/09/21 02:05:11;;;;;;;;;;;;;;;14.69;66.45;100913.19;5053544;28;19928;-62
2021/09/21 02:08:04;;;;;;;;;;;;;;;14.68;66.37;100919.25;5053224;28;19928;-62
2021/09/21 02:10:53;;;;;;;;;;;;;;;14.68;66.39;100919.25;5053185;28;19927;-62
2021/09/21 02:13:43;;;;;;;;;;;;;;;14.68;66.19;100913.16;5052642;28;19951;-62
2021/09/21 02:16:33;;;;;;;;;;;;;;;14.67;66.40;100917.47;5053262;28;19970;-61
2021/09/21 02:19:21;;;;;;;;;;;;;;;14.67;66.34;100930.50;5053467;28;20304;-62
2021/09/21 02:22:05;;;;;;;;;;;;;;;14.68;66.40;100931.44;5053420;28;20014;-63
2021/09/21 02:24:51;;;;;;;;;;;;;;;14.67;66.47;100925.28;5038429;28;19974;-63
2021/09/21 02:27:35;;;;;;;;;;;;;;;14.68;66.35;100926.22;5034927;28;19928;-63
2021/09/21 02:30:19;;;;;;;;;;;;;;;14.68;66.49;100918.38;5034248;28;20008;-62
2021/09/21 02:33:09;;;;;;;;;;;;;;;14.67;66.53;100924.41;5034484;28;19932;-61
2021/09/21 02:35:52;;;;;;;;;;;;;;;14.66;66.33;100923.53;5033687;28;20020;-61
2021/09/21 02:38:39;;;;;;;;;;;;;;;14.65;66.42;100921.78;5033735;28;19966;-61
2021/09/21 02:41:23;;;;;;;;;;;;;;;14.66;66.38;100914.84;5034100;28;19975;-61
2021/09/21 02:44:10;;;;;;;;;;;;;;;14.65;66.48;100911.34;5047745;28;20374;-61
2021/09/21 02:46:54;;;;;;;;;;;;;;;14.65;66.33;100900.91;5034863;28;19928;-61
2021/09/21 02:49:38;;;;;;;;;;;;;;;14.64;66.46;100903.50;5034438;28;19928;-61
2021/09/21 02:52:22;;;;;;;;;;;;;;;14.64;66.43;100903.50;5035227;28;20482;-62
2021/09/21 02:55:15;;;;;;;;;;;;;;;14.63;66.43;100910.47;5034235;28;19975;-62
2021/09/21 02:58:02;;;;;;;;;;;;;;;14.62;66.39;100912.19;5034312;28;19927;-62
2021/09/21 03:00:47;;;;;;;;;;;;;;;14.63;66.51;100910.47;5033281;28;19927;-61
2021/09/21 03:03:42;;;;;;;;;;;;;;;14.62;66.39;100909.56;5034567;28;19928;-62
2021/09/21 03:06:35;;;;;;;;;;;;;;;14.62;66.44;100906.97;5033667;28;19967;-62
2021/09/21 03:18:17;;;;;;;;;;;;;;;14.59;66.41;100925.19;5033760;28;20071;-63
2021/09/21 03:21:01;;;;;;;;;;;;;;;14.58;66.41;100930.41;5033519;28;20383;-63
2021/09/21 03:23:53;;;;;;;;;;;;;;;14.58;66.40;100927.78;5034321;28;20395;-63
2021/09/21 03:26:39;;;;;;;;;;;;;;;14.58;66.57;100938.22;5033788;28;19928;-63
2021/09/21 03:29:29;;;;;;;;;;;;;;;14.58;66.51;100940.81;5032793;28;19967;-63
2021/09/21 03:32:18;;;;;;;;;;;;;;;14.56;66.43;100938.19;5033019;28;19975;-62
2021/09/21 03:35:06;;;;;;;;;;;;;;;14.56;66.55;100927.75;5032914;28;19928;-61
2021/09/21 03:37:51;;;;;;;;;;;;;;;14.53;66.44;100935.56;5032996;28;19967;-62
2021/09/21 03:40:40;;;;;;;;;;;;;;;14.54;66.57;100934.69;5034165;28;19928;-62
2021/09/21 03:43:30;;;;;;;;;;;;;;;14.53;66.55;100927.72;5039767;28;20429;-61
2021/09/21 03:46:20;;;;;;;;;;;;;;;14.52;66.45;100931.19;5039479;28;20284;-61
2021/09/21 03:49:03;;;;;;;;;;;;;;;14.52;66.48;100939.00;5039626;28;20407;-61
2021/09/21 03:51:48;;;;;;;;;;;;;;;14.51;66.54;100952.91;5040436;28;20388;-62
2021/09/21 03:54:38;;;;;;;;;;;;;;;14.51;66.55;100957.22;5040081;28;19975;-61
2021/09/21 03:57:27;;;;;;;;;;;;;;;14.50;66.55;100969.41;5039390;28;19928;-61
2021/09/21 04:00:12;;;;;;;;;;;;;;;14.50;66.47;100972.03;5039084;28;19929;-61
2021/09/21 04:02:55;;;;;;;;;;;;;;;14.49;66.64;100975.47;5040243;28;19967;-61
2021/09/21 04:05:42;;;;;;;;;;;;;;;14.49;66.51;100977.19;5039418;28;20289;-62
2021/09/21 04:08:29;;;;;;;;;;;;;;;14.50;66.58;100979.84;5040281;28;19928;-62
2021/09/21 04:11:22;;;;;;;;;;;;;;;14.49;66.33;100985.00;5039987;28;19932;-62
2021/09/21 04:14:12;;;;;;;;;;;;;;;14.48;66.70;100997.19;5039185;28;19967;-62
2021/09/21 04:17:01;;;;;;;;;;;;;;;14.46;66.67;100999.78;5040365;28;19928;-62
2021/09/21 04:19:51;;;;;;;;;;;;;;;14.46;66.63;100999.78;5039398;28;19928;-61
2021/09/21 04:22:43;;;;;;;;;;;;;;;14.46;66.65;101004.13;5038877;28;19967;-62
2021/09/21 04:25:31;;;;;;;;;;;;;;;14.45;66.66;101005.88;5039011;28;20020;-62
2021/09/21 04:28:15;;;;;;;;;;;;;;;14.45;66.62;101016.28;5039350;28;20280;-63
2021/09/21 04:31:11;;;;;;;;;;;;;;;14.44;66.78;101017.16;5040381;28;19944;-64
2021/09/21 04:33:58;;;;;;;;;;;;;;;14.44;66.67;101021.47;5038741;28;19953;-63
2021/09/21 04:36:47;;;;;;;;;;;;;;;14.44;66.71;101014.53;5039743;28;19928;-63
2021/09/21 04:39:41;;;;;;;;;;;;;;;14.43;66.77;101019.72;5038929;28;19928;-61
2021/09/21 04:42:28;;;;;;;;;;;;;;;14.43;66.69;101019.72;5039385;28;19968;-63
2021/09/21 04:45:14;;;;;;;;;;;;;;;14.42;66.74;101026.66;5039016;28;19983;-63
2021/09/21 04:48:07;;;;;;;;;;;;;;;14.42;66.67;101033.59;5038848;28;19963;-61
2021/09/21 04:50:51;;;;;;;;;;;;;;;14.41;66.82;101031.84;5038978;28;19948;-61
2021/09/21 04:53:35;;;;;;;;;;;;;;;14.40;66.67;101036.19;5038075;28;19995;-61
2021/09/21 04:56:24;;;;;;;;;;;;;;;14.41;66.79;101042.28;5036555;28;20022;-61
2021/09/21 04:59:14;;;;;;;;;;;;;;;14.40;66.82;101045.78;5035145;28;19971;-61
2021/09/21 05:02:01;;;;;;;;;;;;;;;14.38;66.84;101048.34;5035751;28;20024;-61
2021/09/21 05:04:53;;;;;;;;;;;;;;;14.40;66.88;101056.19;5035636;28;20453;-61
2021/09/21 05:07:38;;;;;;;;;;;;;;;14.39;66.89;101049.22;5035159;28;19967;-64
2021/09/21 05:10:27;;;;;;;;;;;;;;;14.39;66.96;101049.22;5036603;28;19928;-63
2021/09/21 05:13:13;;;;;;;;;;;;;;;14.39;66.95;101060.53;5035641;28;19928;-63
2021/09/21 05:16:06;;;;;;;;;;;;;;;14.39;66.80;101057.03;5036346;28;19928;-63
2021/09/21 05:18:50;;;;;;;;;;;;;;;14.39;66.72;101054.44;5036104;28;19928;-63
2021/09/21 05:21:40;;;;;;;;;;;;;;;14.38;66.89;101050.94;5036460;28;19974;-63
2021/09/21 05:24:33;;;;;;;;;;;;;;;14.39;66.99;101057.91;5035053;28;19974;-63
2021/09/21 05:27:25;;;;;;;;;;;;;;;14.38;66.93;101076.16;5035231;28;20403;-63
2021/09/21 05:30:15;;;;;;;;;;;;;;;14.37;66.87;101087.44;5035136;28;20008;-63
2021/09/21 05:32:59;;;;;;;;;;;;;;;14.37;67.06;101096.13;5035356;28;19928;-63
2021/09/21 05:35:46;;;;;;;;;;;;;;;14.36;66.91;101089.16;5035766;28;19987;-63
2021/09/21 05:38:32;;;;;;;;;;;;;;;14.36;67.07;101086.53;5035035;28;20400;-61
2021/09/21 05:41:22;;;;;;;;;;;;;;;14.36;67.06;101083.94;5048538;28;20296;-61
2021/09/21 05:44:08;;;;;;;;;;;;;;;14.35;67.10;101083.91;5035400;28;19960;-63
2021/09/21 05:46:58;;;;;;;;;;;;;;;14.35;67.11;101078.69;5034584;28;19975;-64
2021/09/21 05:49:48;;;;;;;;;;;;;;;14.35;66.95;101087.38;5034549;28;19952;-63
2021/09/21 05:52:37;;;;;;;;;;;;;;;14.34;67.01;101084.78;5034195;28;19928;-63
2021/09/21 05:55:21;;;;;;;;;;;;;;;14.35;67.11;101089.13;5034454;28;19975;-63
2021/09/21 05:58:08;;;;;;;;;;;;;;;14.34;67.13;101080.41;5034383;28;20022;-63
2021/09/21 06:00:52;;;;;;;;;;;;;;;14.35;67.07;101076.09;5034465;28;19928;-63
2021/09/21 06:03:40;;;;;;;;;;;;;;;14.34;67.03;101084.78;5034336;28;20330;-63
2021/09/21 06:06:27;;;;;;;;;;;;;;;14.33;67.08;101089.09;5034556;28;19928;-63
2021/09/21 06:09:11;;;;;;;;;;;;;;;14.33;66.88;101107.34;5034612;28;19928;-63
2021/09/21 06:12:01;;;;;;;;;;;;;;;14.34;67.07;101113.44;5035195;28;20435;-63
2021/09/21 06:14:45;;;;;;;;;;;;;;;14.33;67.23;101123.00;5034212;28;19991;-63
2021/09/21 06:17:29;;;;;;;;;;;;;;;14.34;67.09;101129.09;5035250;28;19927;-63
2021/09/21 06:20:18;;;;;;;;;;;;;;;14.33;67.25;101130.81;5034625;28;20059;-62
2021/09/21 06:23:02;;;;;;;;;;;;;;;14.33;67.36;101133.41;5033994;28;19928;-63
2021/09/21 06:25:52;;;;;;;;;;;;;;;14.34;67.33;101134.31;5034301;28;19979;-63
2021/09/21 06:28:45;;;;;;;;;;;;;;;14.34;67.30;101140.38;5033765;28;20283;-63
2021/09/21 06:31:29;;;;;;;;;;;;;;;14.34;67.25;101139.53;5033995;28;19927;-62
2021/09/21 06:34:18;;;;;;;;;;;;;;;14.34;67.32;101155.19;5034577;28;19963;-63
2021/09/21 06:37:08;;;;;;;;;;;;;;;14.33;67.31;101156.88;5034037;28;20343;-63
2021/09/21 06:39:54;;;;;;;;;;;;;;;14.34;67.45;101150.81;5033767;28;19928;-63
2021/09/21 06:42:41;;;;;;;;;;;;;;;14.35;67.35;101147.38;5034514;28;20352;-63
2021/09/21 06:45:30;;;;;;;;;;;;;;;14.36;67.47;101153.47;5033988;28;19928;-63
2021/09/21 06:48:14;;;;;;;;;;;;;;;14.35;67.40;101143.91;5034618;28;19928;-63
2021/09/21 06:50:58;;;;;;;;;;;;;;;14.36;67.41;101143.03;5034542;28;19927;-63
2021/09/21 06:53:45;;;;;;;;;;;;;;;14.36;67.43;101154.34;5034641;28;19928;-63
2021/09/21 06:56:32;;;;;;;;;;;;;;;14.37;67.13;101139.59;5033365;28;19972;-63
2021/09/21 06:59:16;;;;;;;;;;;;;;;14.38;67.50;101149.16;5033654;28;19944;-63
2021/09/21 07:02:05;;;;;;;;;;;;;;;14.37;67.37;101142.19;5034499;28;19932;-63
2021/09/21 07:04:49;;;;;;;;;;;;;;;14.37;67.61;101144.81;5033700;28;20288;-63
2021/09/21 07:07:33;;;;;;;;;;;;;;;14.38;67.59;101154.38;5047854;28;19932;-63
2021/09/21 07:10:18;;;;;;;;;;;;;;;14.39;67.72;101163.97;5034183;28;19947;-63
2021/09/21 07:13:08;;;;;;;;;;;;;;;14.40;67.38;101165.72;5034125;28;19928;-63
2021/09/21 07:15:52;;;;;;;;;;;;;;;14.40;67.65;101170.94;5032390;28;19928;-63
2021/09/21 07:18:38;;;;;;;;;;;;;;;14.41;67.61;101177.88;5034179;28;19928;-63
2021/09/21 07:21:27;;;;;;;;;;;;;;;14.40;67.67;101187.47;5032769;28;19928;-63
2021/09/21 07:24:17;;;;;;;;;;;;;;;14.41;67.75;101189.22;5033682;28;20007;-63
2021/09/21 07:27:03;;;;;;;;;;;;;;;14.40;67.76;101194.41;5033011;28;19928;-63
2021/09/21 07:29:55;;;;;;;;;;;;;;;14.42;67.79;101197.91;5034232;28;19928;-63
2021/09/21 07:32:42;;;;;;;;;;;;;;;14.41;67.77;101199.66;5032862;28;20285;-63
2021/09/21 07:35:32;;;;;;;;;;;;;;;14.42;67.81;101211.84;5032656;28;19944;-63
2021/09/21 07:38:19;;;;;;;;;;;;;;;14.43;67.82;101212.69;5032504;28;19927;-63
2021/09/21 07:41:06;;;;;;;;;;;;;;;14.43;67.76;101212.69;5033054;28;19932;-63
2021/09/21 07:43:50;;;;;;;;;;;;;;;14.43;67.80;101215.31;5033108;28;19975;-63
2021/09/21 07:46:34;;;;;;;;;;;;;;;14.43;67.75;101218.81;5034109;28;20331;-63
2021/09/21 07:49:18;;;;;;;;;;;;;;;14.42;67.88;101222.28;5032970;28;19932;-63
2021/09/21 07:52:02;;;;;;;;;;;;;;;14.43;67.96;101228.34;5032753;28;19975;-63
2021/09/21 07:54:51;;;;;;;;;;;;;;;14.43;68.09;101229.25;5032537;28;20023;-63
2021/09/21 07:57:38;;;;;;;;;;;;;;;14.43;67.91;101223.13;5033120;28;19928;-63
2021/09/21 08:00:26;;;;;;;;;;;;;;;14.43;67.81;101237.06;5032924;28;19928;-63
2021/09/21 08:03:10;;;;;;;;;;;;;;;14.44;68.07;101235.31;5032550;28;19944;-63
2021/09/21 08:05:54;;;;;;;;;;;;;;;14.44;68.01;101241.44;5047055;28;20028;-63
2021/09/21 08:08:39;;;;;;;;;;;;;;;14.45;67.96;101247.53;5033491;28;20008;-63
2021/09/21 08:11:24;;;;;;;;;;;;;;;14.45;67.77;101250.13;5032574;28;19932;-63
2021/09/21 08:14:08;;;;;;;;;;;;;;;14.46;68.13;101246.69;5033714;28;20379;-63
2021/09/21 08:16:57;;;;;;;;;;;;;;;14.47;68.00;101245.81;5033909;28;20403;-63
2021/09/21 08:19:49;;;;;;;;;;;;;;;14.47;68.05;101251.03;5032309;28;20411;-63
2021/09/21 08:22:39;;;;;;;;;;;;;;;14.48;68.05;101258.03;5033014;28;20395;-63
2021/09/21 08:25:29;;;;;;;;;;;;;;;14.49;67.83;101257.16;5032771;28;19932;-63
2021/09/21 08:28:21;;;;;;;;;;;;;;;14.49;67.95;101238.91;5034095;28;19979;-63
2021/09/21 08:31:10;;;;;;;;;;;;;;;14.51;68.03;101242.44;5036251;28;19979;-63
2021/09/21 08:34:00;;;;;;;;;;;;;;;14.52;68.00;101235.47;5037067;28;19928;-63
2021/09/21 08:36:44;;;;;;;;;;;;;;;14.53;68.01;101245.97;5037387;28;19928;-63
2021/09/21 08:39:34;;;;;;;;;;;;;;;14.54;68.12;101252.03;5036565;28;20403;-63
2021/09/21 08:42:17;;;;;;;;;;;;;;;14.54;68.00;101254.66;5035938;28;19928;-63
2021/09/21 08:45:07;;;;;;;;;;;;;;;14.55;68.06;101257.31;5036777;28;19928;-63
2021/09/21 08:47:51;;;;;;;;;;;;;;;14.56;68.00;101266.84;5036280;28;19975;-63
2021/09/21 08:50:38;;;;;;;;;;;;;;;14.57;67.98;101263.41;5036499;28;19971;-63
2021/09/21 08:53:30;;;;;;;;;;;;;;;14.58;67.79;101269.50;5037086;28;19975;-63
2021/09/21 08:56:22;;;;;;;;;;;;;;;14.61;67.93;101264.38;5035454;28;19928;-63
2021/09/21 08:59:15;;;;;;;;;;;;;;;14.61;68.01;101267.84;5035910;28;19929;-63
2021/09/21 09:02:04;;;;;;;;;;;;;;;14.62;67.96;101261.78;5035178;28;19928;-63
2021/09/21 09:05:03;;;;;;;;;;;;;;;14.66;67.75;101256.63;5035399;28;20372;-63
2021/09/21 09:07:48;;;;;;;;;;;;;;;14.67;67.86;101263.59;5036904;28;20395;-63
2021/09/21 09:10:33;;;;;;;;;;;;;;;14.69;67.79;101256.72;5035255;28;19927;-63
2021/09/21 09:13:25;;;;;;;;;;;;;;;14.71;67.83;101270.66;5036400;28;19928;-63
2021/09/21 09:16:19;;;;;;;;;;;;;;;14.73;67.80;101271.56;5035055;28;19928;-63
2021/09/21 09:19:07;;;;;;;;;;;;;;;14.74;67.72;101276.81;5035813;28;20022;-63
2021/09/21 09:21:51;;;;;;;;;;;;;;;14.77;67.77;101282.09;5035460;28;20343;-63
2021/09/21 09:24:55;;;;;;;;;;;;;;;14.79;67.95;101282.13;5036578;28;19928;-63
2021/09/21 09:27:41;;;;;;;;;;;;;;;14.80;67.74;101275.16;5035304;28;20279;-63
2021/09/21 09:30:25;;;;;;;;;;;;;;;14.80;67.65;101280.38;5036475;28;19943;-64
2021/09/21 09:33:18;;;;;;;;;;;;;;;14.81;67.81;101283.03;5035684;28;19971;-63
2021/09/21 09:36:05;;;;;;;;;;;;;;;14.81;67.87;101277.81;5034747;28;19927;-63
2021/09/21 09:39:00;;;;;;;;;;;;;;;14.82;67.60;101276.97;5035125;28;20059;-63
2021/09/21 09:41:45;;;;;;;;;;;;;;;14.81;67.65;101280.41;5034791;28;19944;-63
2021/09/21 09:44:30;;;;;;;;;;;;;;;14.83;67.60;101272.59;5035213;28;20282;-63
2021/09/21 09:47:14;;;;;;;;;;;;;;;14.83;67.65;101267.38;5034988;28;20402;-63
2021/09/21 09:49:59;;;;;;;;;;;;;;;14.84;67.64;101270.03;5035843;28;19999;-63
2021/09/21 09:52:42;;;;;;;;;;;;;;;14.85;67.57;101273.50;5035834;28;19929;-63
2021/09/21 09:55:27;;;;;;;;;;;;;;;14.86;67.52;101281.38;5035339;28;20342;-63
2021/09/21 09:58:11;;;;;;;;;;;;;;;14.85;67.70;101277.00;5035678;28;20307;-63
2021/09/21 10:00:56;;;;;;;;;;;;;;;14.86;67.67;101270.06;5035580;28;19987;-63
2021/09/21 10:03:41;;;;;;;;;;;;;;;14.89;67.56;101276.19;5035717;28;19983;-63
2021/09/21 10:06:25;;;;;;;;;;;;;;;14.90;67.59;101277.09;5034542;28;19928;-62
2021/09/21 10:09:09;;;;;;;;;;;;;;;14.89;67.65;101272.72;5034881;28;19928;-63
2021/09/21 10:11:56;;;;;;;;;;;;;;;14.89;67.44;101284.03;5034206;28;19994;-63
2021/09/21 10:14:41;;;;;;;;;;;;;;;14.89;67.62;101273.59;5033911;28;19928;-63
2021/09/21 10:17:25;;;;;;;;;;;;;;;14.89;67.58;101263.16;5035456;28;19983;-61
2021/09/21 10:20:12;;;;;;;;;;;;;;;14.90;67.58;101264.03;5034401;28;19928;-62
2021/09/21 10:22:56;;;;;;;;;;;;;;;14.90;67.59;101271.88;5034622;28;19975;-61
2021/09/21 10:25:41;;;;;;;;;;;;;;;14.91;67.29;101281.47;5035063;28;19967;-61
2021/09/21 10:28:25;;;;;;;;;;;;;;;14.92;67.42;101276.25;5034908;28;20446;-62
2021/09/21 10:31:14;;;;;;;;;;;;;;;14.92;67.36;101278.88;5035324;28;19927;-61
2021/09/21 10:34:08;;;;;;;;;;;;;;;14.94;67.42;101280.63;5034368;28;19928;-61
2021/09/21 10:36:59;;;;;;;;;;;;;;;14.96;67.50;101286.75;5034049;28;20347;-61
2021/09/21 10:39:44;;;;;;;;;;;;;;;14.97;67.59;101283.31;5033501;28;19928;-61
2021/09/21 10:42:28;;;;;;;;;;;;;;;14.97;67.36;101284.16;5034434;28;20293;-62
2021/09/21 10:45:22;;;;;;;;;;;;;;;14.97;67.42;101273.72;5033988;28;19943;-61
2021/09/21 10:48:06;;;;;;;;;;;;;;;14.99;67.34;101281.59;5033660;28;20395;-62
2021/09/21 10:50:57;;;;;;;;;;;;;;;14.98;67.28;101285.06;5033017;28;19928;-62
2021/09/21 10:53:41;;;;;;;;;;;;;;;14.98;67.23;101285.91;5033561;28;20097;-62
2021/09/21 10:56:25;;;;;;;;;;;;;;;14.99;67.18;101279.00;5032984;28;19928;-62
2021/09/21 10:59:16;;;;;;;;;;;;;;;14.99;67.19;101273.75;5034725;28;19928;-61
2021/09/21 11:02:04;;;;;;;;;;;;;;;15.00;67.30;101276.38;5032913;28;20316;-62
2021/09/21 11:04:48;;;;;;;;;;;;;;;15.00;67.37;101268.56;5033341;28;19928;-61
2021/09/21 11:07:32;;;;;;;;;;;;;;;15.01;67.22;101272.06;5033630;28;20384;-61
2021/09/21 11:10:17;;;;;;;;;;;;;;;15.02;67.25;101268.59;5034486;28;20020;-61
2021/09/21 11:13:07;;;;;;;;;;;;;;;15.02;67.21;101277.31;5034034;28;20028;-61
2021/09/21 11:15:51;;;;;;;;;;;;;;;15.01;67.15;101270.31;5032658;28;19975;-61
2021/09/21 11:18:36;;;;;;;;;;;;;;;15.02;67.18;101271.22;5033952;28;19928;-61
2021/09/21 11:21:20;;;;;;;;;;;;;;;15.03;67.28;101279.06;5033056;28;19974;-61
2021/09/21 11:24:05;;;;;;;;;;;;;;;15.03;67.17;101278.16;5034179;28;19940;-61
2021/09/21 11:27:00;;;;;;;;;;;;;;;15.03;67.13;101288.59;5033348;28;19971;-63
2021/09/21 11:29:44;;;;;;;;;;;;;;;15.02;67.11;101292.97;5032961;28;19932;-63
2021/09/21 11:32:28;;;;;;;;;;;;;;;15.03;67.22;101297.34;5032855;28;20507;-63
2021/09/21 11:35:13;;;;;;;;;;;;;;;15.03;67.06;101296.44;5033951;28;20415;-63
2021/09/21 11:37:57;;;;;;;;;;;;;;;15.02;67.12;101292.09;5033276;28;19928;-61
2021/09/21 11:40:43;;;;;;;;;;;;;;;15.01;67.12;101300.78;5032822;28;19928;-61
2021/09/21 11:43:29;;;;;;;;;;;;;;;15.01;66.76;101303.41;5047275;28;19928;-63
2021/09/21 11:46:13;;;;;;;;;;;;;;;15.01;67.01;101317.31;5032937;28;19971;-62
2021/09/21 11:48:59;;;;;;;;;;;;;;;15.01;66.88;101306.88;5033665;28;19928;-63
2021/09/21 11:51:43;;;;;;;;;;;;;;;15.02;66.85;101306.03;5033177;28;19928;-62
2021/09/21 11:54:30;;;;;;;;;;;;;;;15.03;66.78;101302.56;5033211;28;19927;-63
2021/09/21 11:57:13;;;;;;;;;;;;;;;15.04;66.92;101298.19;5033643;28;19983;-63
2021/09/21 11:59:58;;;;;;;;;;;;;;;15.07;67.03;101298.25;5032985;28;19964;-62
2021/09/21 12:02:42;;;;;;;;;;;;;;;15.10;66.95;101292.22;5033342;28;19933;-63
2021/09/21 12:05:27;;;;;;;;;;;;;;;15.11;66.93;101286.13;5036912;28;19928;-63
2021/09/21 12:08:16;;;;;;;;;;;;;;;15.11;66.88;101280.91;5037907;28;19974;-63
2021/09/21 12:11:15;;;;;;;;;;;;;;;15.12;66.96;101280.94;5037170;28;20319;-61
2021/09/21 12:13:59;;;;;;;;;;;;;;;15.13;66.94;101293.16;5036858;28;20051;-61
2021/09/21 12:16:50;;;;;;;;;;;;;;;15.12;66.83;101291.41;5037433;28;19936;-61
2021/09/21 12:19:40;;;;;;;;;;;;;;;15.11;66.80;101286.13;5036976;28;19971;-62
2021/09/21 12:22:24;;;;;;;;;;;;;;;15.13;67.00;101287.03;5037199;28;20422;-62
2021/09/21 12:25:08;;;;;;;;;;;;;;;15.15;66.70;101290.56;5037145;28;19932;-61
2021/09/21 12:27:54;;;;;;;;;;;;;;;15.18;66.70;101285.41;5037351;28;19928;-61
2021/09/21 12:30:42;;;;;;;;;;;;;;;15.18;66.93;101288.00;5036189;28;20009;-61
2021/09/21 12:33:33;;;;;;;;;;;;;;;15.17;66.73;101279.31;5035710;28;19967;-63
2021/09/21 12:36:25;;;;;;;;;;;;;;;15.17;66.89;101281.03;5036151;28;19975;-62
2021/09/21 12:39:13;;;;;;;;;;;;;;;15.15;66.75;101274.91;5036680;28;19979;-61
2021/09/21 12:42:08;;;;;;;;;;;;;;;15.17;66.81;101275.81;5036394;28;19971;-61
2021/09/21 12:44:56;;;;;;;;;;;;;;;15.17;66.83;101275.81;5036920;28;20028;-61
2021/09/21 12:47:40;;;;;;;;;;;;;;;15.16;66.73;101277.56;5036958;28;19928;-61
2021/09/21 12:50:35;;;;;;;;;;;;;;;15.16;66.60;101285.38;5037250;28;19940;-62
2021/09/21 12:53:25;;;;;;;;;;;;;;;15.14;66.73;101281.88;5050147;28;20015;-62
2021/09/21 12:56:10;;;;;;;;;;;;;;;15.14;66.63;101284.47;5035739;28;19928;-61
2021/09/21 12:59:01;;;;;;;;;;;;;;;15.15;66.80;101278.41;5036671;28;20039;-61
2021/09/21 13:01:48;;;;;;;;;;;;;;;15.15;66.67;101267.97;5035819;28;19948;-63
2021/09/21 13:04:32;;;;;;;;;;;;;;;15.17;66.83;101262.75;5036321;28;19944;-63
2021/09/21 13:07:17;;;;;;;;;;;;;;;15.19;66.56;101269.75;5036667;28;19924;-62
2021/09/21 13:10:01;;;;;;;;;;;;;;;15.19;66.77;101272.34;5036454;28;20318;-63
2021/09/21 13:12:52;;;;;;;;;;;;;;;15.22;66.61;101271.53;5035866;28;20015;-63
2021/09/21 13:15:38;;;;;;;;;;;;;;;15.19;66.78;101277.56;5034232;28;19928;-62
2021/09/21 13:18:21;;;;;;;;;;;;;;;15.20;66.65;101278.47;5035308;28;20418;-61
2021/09/21 13:21:06;;;;;;;;;;;;;;;15.19;66.62;101269.75;5035696;28;20080;-61
2021/09/21 13:23:50;;;;;;;;;;;;;;;15.22;66.52;101258.50;5036087;28;19928;-61
2021/09/21 13:26:33;;;;;;;;;;;;;;;15.22;66.65;101264.56;5036166;28;19948;-61
2021/09/21 13:29:17;;;;;;;;;;;;;;;15.25;66.86;101260.25;5036508;28;20376;-62
2021/09/21 13:32:01;;;;;;;;;;;;;;;15.24;66.51;101259.41;5036454;28;19928;-61
2021/09/21 13:34:45;;;;;;;;;;;;;;;15.25;66.56;101257.66;5035954;28;20422;-61
2021/09/21 13:37:29;;;;;;;;;;;;;;;15.25;66.60;101265.47;5036387;28;19967;-61
2021/09/21 13:40:18;;;;;;;;;;;;;;;15.23;66.77;101262.84;5035744;28;19928;-61
2021/09/21 13:43:02;;;;;;;;;;;;;;;15.22;66.48;101259.34;5049148;28;19976;-62
2021/09/21 13:45:46;;;;;;;;;;;;;;;15.25;66.59;101257.66;5036027;28;19927;-61
2021/09/21 13:48:30;;;;;;;;;;;;;;;15.25;66.68;101253.31;5035798;28;19948;-61
2021/09/21 13:51:14;;;;;;;;;;;;;;;15.26;66.64;101255.03;5036116;28;19928;-61
2021/09/21 13:53:58;;;;;;;;;;;;;;;15.27;66.70;101261.16;5035820;28;19982;-61
2021/09/21 13:56:42;;;;;;;;;;;;;;;15.27;66.70;101254.19;5035651;28;20387;-61
2021/09/21 13:59:26;;;;;;;;;;;;;;;15.27;66.70;101256.81;5034966;28;19927;-61
2021/09/21 14:02:10;;;;;;;;;;;;;;;15.28;66.92;101255.09;5035429;28;19952;-61
2021/09/21 14:04:54;;;;;;;;;;;;;;;15.27;66.63;101243.75;5035723;28;19931;-63
2021/09/21 14:07:38;;;;;;;;;;;;;;;15.26;66.04;101239.38;5035611;28;19928;-62
2021/09/21 14:10:21;;;;;;;;;;;;;;;15.28;66.46;101244.66;5035578;28;19976;-61
2021/09/21 14:13:05;;;;;;;;;;;;;;;15.26;66.48;101242.00;5035124;28;19927;-62
2021/09/21 14:15:49;;;;;;;;;;;;;;;15.27;66.59;101241.13;5035274;28;20288;-62
2021/09/21 14:18:33;;;;;;;;;;;;;;;15.28;66.31;101231.59;5035784;28;19928;-62
2021/09/21 14:21:18;;;;;;;;;;;;;;;15.27;66.16;101232.44;5034587;28;19990;-62
2021/09/21 14:24:02;;;;;;;;;;;;;;;15.28;66.50;101227.22;5033966;28;20016;-61
2021/09/21 14:26:47;;;;;;;;;;;;;;;15.29;66.55;101229.00;5033864;28;20009;-61
2021/09/21 14:29:31;;;;;;;;;;;;;;;15.28;66.53;101221.16;5034854;28;19927;-61
2021/09/21 14:32:15;;;;;;;;;;;;;;;15.28;66.47;101227.22;5034346;28;20434;-62